PWSweather.com
Personal Weather Stations
Station Observations
K7AZM
Phoenix, AZ 85050

Phoenix, AZ 85050

Lat: 33.662, Lon: -112.019

Elevation: 1500

Station Type: Davis Vantage Vue

http://www.silhanek.com/weather

High Low Average
Temperature 60.7°F15.9°C 31.7°F-0.2°C 46.7°F8.2°C
Dew Point 23.3°F-4.8°C 10.2°F-12.1°C 17.1°F-8.3°C
Winds 2.7 mph 4.3 kmh Calm Calm Calm SWCalm SW
Wind Gusts 7.0 mph11.3 kmh -- 2.0 mph3.2 kmh
Humidity 56% 17% 33%
Pressure 30.19 in1022.4 mb 30.09 in1019.0 mb -
Precipitation 0.00 in0.0 mm - -
Hour Temp Dew Point Humidity Winds Wind Gusts Pressure Precip Precip Rate Daily Precip Total
12:00 AM 37.1°F2.8°C 21.1°F-6.1°C 52% Calm Calm 1.0 mph1.6 kmh 30.16 in1021.3 mb 0.00 in0.0 mm 0.00 in0.0 mm 0.00 in0.0 mm
12:05 AM 36.9°F2.7°C 20.9°F-6.2°C 52% Calm Calm -- 30.16 in1021.3 mb 0.00 in0.0 mm 0.00 in0.0 mm 0.00 in0.0 mm
12:10 AM 36.8°F2.7°C 21.3°F-5.9°C 53% Calm Calm -- 30.16 in1021.3 mb 0.00 in0.0 mm 0.00 in0.0 mm 0.00 in0.0 mm
12:15 AM 36.6°F2.6°C 21.1°F-6.1°C 53% Calm Calm -- 30.16 in1021.3 mb 0.00 in0.0 mm 0.00 in0.0 mm 0.00 in0.0 mm
12:20 AM 36.7°F2.6°C 20.8°F-6.2°C 52% Calm Calm -- 30.16 in1021.3 mb 0.00 in0.0 mm 0.00 in0.0 mm 0.00 in0.0 mm
12:25 AM 36.6°F2.6°C 20.7°F-6.3°C 52% Calm Calm -- 30.16 in1021.3 mb 0.00 in0.0 mm 0.00 in0.0 mm 0.00 in0.0 mm
12:30 AM 36.6°F2.6°C 20.7°F-6.3°C 52% Calm Calm -- 30.16 in1021.3 mb 0.00 in0.0 mm 0.00 in0.0 mm 0.00 in0.0 mm
12:35 AM 36.5°F2.5°C 21.0°F-6.1°C 53% Calm Calm -- 30.16 in1021.3 mb 0.00 in0.0 mm 0.00 in0.0 mm 0.00 in0.0 mm
12:40 AM 36.5°F2.5°C 21.0°F-6.1°C 53% Calm Calm -- 30.16 in1021.3 mb 0.00 in0.0 mm 0.00 in0.0 mm 0.00 in0.0 mm
12:45 AM 36.4°F2.4°C 20.9°F-6.2°C 53% Calm Calm -- 30.16 in1021.3 mb 0.00 in0.0 mm 0.00 in0.0 mm 0.00 in0.0 mm
12:50 AM 36.3°F2.4°C 20.8°F-6.2°C 53% Calm Calm -- 30.16 in1021.3 mb 0.00 in0.0 mm 0.00 in0.0 mm 0.00 in0.0 mm
12:55 AM 36.1°F2.3°C 20.6°F-6.3°C 53% Calm Calm -- 30.16 in1021.3 mb 0.00 in0.0 mm 0.00 in0.0 mm 0.00 in0.0 mm
01:00 AM 36.0°F2.2°C 20.5°F-6.4°C 53% 0.1 mph N0.2 kmh N 1.0 mph1.6 kmh 30.17 in1021.7 mb 0.00 in0.0 mm 0.00 in0.0 mm 0.00 in0.0 mm
01:05 AM 36.1°F2.3°C 20.6°F-6.3°C 53% 0.1 mph NNW0.2 kmh NNW 1.0 mph1.6 kmh 30.17 in1021.7 mb 0.00 in0.0 mm 0.00 in0.0 mm 0.00 in0.0 mm
01:10 AM 36.2°F2.3°C 20.3°F-6.5°C 52% 0.1 mph N0.2 kmh N 1.0 mph1.6 kmh 30.17 in1021.7 mb 0.00 in0.0 mm 0.00 in0.0 mm 0.00 in0.0 mm
01:15 AM 36.3°F2.4°C 20.4°F-6.4°C 52% 0.1 mph N0.2 kmh N 1.0 mph1.6 kmh 30.17 in1021.7 mb 0.00 in0.0 mm 0.00 in0.0 mm 0.00 in0.0 mm
01:20 AM 36.2°F2.3°C 20.3°F-6.5°C 52% 0.2 mph NNW0.3 kmh NNW 1.0 mph1.6 kmh 30.16 in1021.3 mb 0.00 in0.0 mm 0.00 in0.0 mm 0.00 in0.0 mm
01:25 AM 36.1°F2.3°C 20.2°F-6.6°C 52% 0.1 mph NNW0.2 kmh NNW 1.0 mph1.6 kmh 30.16 in1021.3 mb 0.00 in0.0 mm 0.00 in0.0 mm 0.00 in0.0 mm
01:30 AM 35.9°F2.2°C 20.0°F-6.7°C 52% 0.1 mph N0.2 kmh N 1.0 mph1.6 kmh 30.16 in1021.3 mb 0.00 in0.0 mm 0.00 in0.0 mm 0.00 in0.0 mm
01:35 AM 35.8°F2.1°C 19.9°F-6.7°C 52% 0.2 mph N0.3 kmh N 1.0 mph1.6 kmh 30.16 in1021.3 mb 0.00 in0.0 mm 0.00 in0.0 mm 0.00 in0.0 mm
01:40 AM 35.9°F2.2°C 20.0°F-6.7°C 52% 0.3 mph N0.5 kmh N 1.0 mph1.6 kmh 30.16 in1021.3 mb 0.00 in0.0 mm 0.00 in0.0 mm 0.00 in0.0 mm
01:45 AM 36.0°F2.2°C 20.1°F-6.6°C 52% 0.3 mph N0.5 kmh N 2.0 mph3.2 kmh 30.16 in1021.3 mb 0.00 in0.0 mm 0.00 in0.0 mm 0.00 in0.0 mm
01:50 AM 35.9°F2.2°C 20.0°F-6.7°C 52% 0.1 mph N0.2 kmh N 2.0 mph3.2 kmh 30.16 in1021.3 mb 0.00 in0.0 mm 0.00 in0.0 mm 0.00 in0.0 mm
01:55 AM 35.8°F2.1°C 19.9°F-6.7°C 52% 0.1 mph N0.2 kmh N 1.0 mph1.6 kmh 30.16 in1021.3 mb 0.00 in0.0 mm 0.00 in0.0 mm 0.00 in0.0 mm
02:00 AM 35.7°F2.1°C 19.8°F-6.8°C 52% 0.5 mph N0.8 kmh N 1.0 mph1.6 kmh 30.16 in1021.3 mb 0.00 in0.0 mm 0.00 in0.0 mm 0.00 in0.0 mm
02:05 AM 35.6°F2.0°C 19.7°F-6.8°C 52% 0.4 mph N0.6 kmh N 1.0 mph1.6 kmh 30.16 in1021.3 mb 0.00 in0.0 mm 0.00 in0.0 mm 0.00 in0.0 mm
02:10 AM 35.5°F1.9°C 19.6°F-6.9°C 52% 0.6 mph NNW1.0 kmh NNW 2.0 mph3.2 kmh 30.15 in1021.0 mb 0.00 in0.0 mm 0.00 in0.0 mm 0.00 in0.0 mm
02:15 AM 35.5°F1.9°C 19.2°F-7.1°C 51% 0.2 mph N0.3 kmh N 2.0 mph3.2 kmh 30.16 in1021.3 mb 0.00 in0.0 mm 0.00 in0.0 mm 0.00 in0.0 mm
02:20 AM 35.4°F1.9°C 19.1°F-7.2°C 51% 0.1 mph N0.2 kmh N 2.0 mph3.2 kmh 30.15 in1021.0 mb 0.00 in0.0 mm 0.00 in0.0 mm 0.00 in0.0 mm
02:25 AM 35.4°F1.9°C 19.1°F-7.2°C 51% 0.2 mph N0.3 kmh N 1.0 mph1.6 kmh 30.15 in1021.0 mb 0.00 in0.0 mm 0.00 in0.0 mm 0.00 in0.0 mm
02:30 AM 35.3°F1.8°C 19.0°F-7.2°C 51% 0.2 mph N0.3 kmh N 1.0 mph1.6 kmh 30.15 in1021.0 mb 0.00 in0.0 mm 0.00 in0.0 mm 0.00 in0.0 mm
02:35 AM 35.3°F1.8°C 19.0°F-7.2°C 51% 0.2 mph N0.3 kmh N 2.0 mph3.2 kmh 30.15 in1021.0 mb 0.00 in0.0 mm 0.00 in0.0 mm 0.00 in0.0 mm
02:40 AM 35.4°F1.9°C 18.6°F-7.4°C 50% 0.1 mph N0.2 kmh N 2.0 mph3.2 kmh 30.15 in1021.0 mb 0.00 in0.0 mm 0.00 in0.0 mm 0.00 in0.0 mm
02:45 AM 35.4°F1.9°C 18.6°F-7.4°C 50% Calm Calm 1.0 mph1.6 kmh 30.15 in1021.0 mb 0.00 in0.0 mm 0.00 in0.0 mm 0.00 in0.0 mm
02:50 AM 35.3°F1.8°C 18.5°F-7.5°C 50% Calm Calm -- 30.15 in1021.0 mb 0.00 in0.0 mm 0.00 in0.0 mm 0.00 in0.0 mm
02:55 AM 34.9°F1.6°C 18.2°F-7.7°C 50% Calm Calm -- 30.15 in1021.0 mb 0.00 in0.0 mm 0.00 in0.0 mm 0.00 in0.0 mm
03:00 AM 34.6°F1.4°C 17.9°F-7.8°C 50% Calm Calm -- 30.14 in1020.7 mb 0.00 in0.0 mm 0.00 in0.0 mm 0.00 in0.0 mm
03:05 AM 34.1°F1.2°C 17.9°F-7.8°C 51% Calm Calm -- 30.15 in1021.0 mb 0.00 in0.0 mm 0.00 in0.0 mm 0.00 in0.0 mm
03:10 AM 34.1°F1.2°C 17.4°F-8.1°C 50% 0.2 mph N0.3 kmh N 1.0 mph1.6 kmh 30.14 in1020.7 mb 0.00 in0.0 mm 0.00 in0.0 mm 0.00 in0.0 mm
03:15 AM 34.4°F1.3°C 17.7°F-7.9°C 50% Calm Calm 1.0 mph1.6 kmh 30.14 in1020.7 mb 0.00 in0.0 mm 0.00 in0.0 mm 0.00 in0.0 mm
03:20 AM 34.5°F1.4°C 17.3°F-8.2°C 49% Calm Calm 1.0 mph1.6 kmh 30.14 in1020.7 mb 0.00 in0.0 mm 0.00 in0.0 mm 0.00 in0.0 mm
03:25 AM 34.5°F1.4°C 17.3°F-8.2°C 49% Calm Calm 1.0 mph1.6 kmh 30.14 in1020.7 mb 0.00 in0.0 mm 0.00 in0.0 mm 0.00 in0.0 mm
03:30 AM 34.3°F1.3°C 17.1°F-8.3°C 49% Calm Calm 1.0 mph1.6 kmh 30.14 in1020.7 mb 0.00 in0.0 mm 0.00 in0.0 mm 0.00 in0.0 mm
03:35 AM 34.4°F1.3°C 16.8°F-8.4°C 48% 0.3 mph N0.5 kmh N 2.0 mph3.2 kmh 30.14 in1020.7 mb 0.00 in0.0 mm 0.00 in0.0 mm 0.00 in0.0 mm
03:40 AM 34.6°F1.4°C 16.9°F-8.4°C 48% 0.2 mph N0.3 kmh N 2.0 mph3.2 kmh 30.14 in1020.7 mb 0.00 in0.0 mm 0.00 in0.0 mm 0.00 in0.0 mm
03:45 AM 34.8°F1.6°C 17.1°F-8.3°C 48% Calm Calm 2.0 mph3.2 kmh 30.14 in1020.7 mb 0.00 in0.0 mm 0.00 in0.0 mm 0.00 in0.0 mm
03:50 AM 34.7°F1.5°C 16.6°F-8.6°C 47% Calm Calm 1.0 mph1.6 kmh 30.14 in1020.7 mb 0.00 in0.0 mm 0.00 in0.0 mm 0.00 in0.0 mm
03:55 AM 34.7°F1.5°C 16.6°F-8.6°C 47% Calm Calm 1.0 mph1.6 kmh 30.14 in1020.7 mb 0.00 in0.0 mm 0.00 in0.0 mm 0.00 in0.0 mm
04:00 AM 34.8°F1.6°C 16.6°F-8.6°C 47% Calm Calm 1.0 mph1.6 kmh 30.14 in1020.7 mb 0.00 in0.0 mm 0.00 in0.0 mm 0.00 in0.0 mm
04:05 AM 34.7°F1.5°C 16.6°F-8.6°C 47% 0.2 mph N0.3 kmh N 2.0 mph3.2 kmh 30.14 in1020.7 mb 0.00 in0.0 mm 0.00 in0.0 mm 0.00 in0.0 mm
04:10 AM 34.8°F1.6°C 16.6°F-8.6°C 47% 0.2 mph N0.3 kmh N 2.0 mph3.2 kmh 30.14 in1020.7 mb 0.00 in0.0 mm 0.00 in0.0 mm 0.00 in0.0 mm
04:15 AM 34.8°F1.6°C 16.6°F-8.6°C 47% 0.1 mph N0.2 kmh N 2.0 mph3.2 kmh 30.14 in1020.7 mb 0.00 in0.0 mm 0.00 in0.0 mm 0.00 in0.0 mm
04:20 AM 34.7°F1.5°C 16.6°F-8.6°C 47% 0.2 mph N0.3 kmh N 1.0 mph1.6 kmh 30.13 in1020.3 mb 0.00 in0.0 mm 0.00 in0.0 mm 0.00 in0.0 mm
04:25 AM 34.6°F1.4°C 16.5°F-8.6°C 47% Calm Calm 1.0 mph1.6 kmh 30.13 in1020.3 mb 0.00 in0.0 mm 0.00 in0.0 mm 0.00 in0.0 mm
04:30 AM 34.5°F1.4°C 16.4°F-8.7°C 47% 0.1 mph N0.2 kmh N 1.0 mph1.6 kmh 30.13 in1020.3 mb 0.00 in0.0 mm 0.00 in0.0 mm 0.00 in0.0 mm
04:35 AM 34.4°F1.3°C 16.8°F-8.4°C 48% 0.1 mph N0.2 kmh N 1.0 mph1.6 kmh 30.13 in1020.3 mb 0.00 in0.0 mm 0.00 in0.0 mm 0.00 in0.0 mm
04:40 AM 34.4°F1.3°C 16.8°F-8.4°C 48% 0.1 mph N0.2 kmh N 1.0 mph1.6 kmh 30.13 in1020.3 mb 0.00 in0.0 mm 0.00 in0.0 mm 0.00 in0.0 mm
04:45 AM 34.0°F1.1°C 16.9°F-8.4°C 49% Calm Calm 1.0 mph1.6 kmh 30.13 in1020.3 mb 0.00 in0.0 mm 0.00 in0.0 mm 0.00 in0.0 mm
04:50 AM 33.4°F0.8°C 16.3°F-8.7°C 49% Calm Calm -- 30.13 in1020.3 mb 0.00 in0.0 mm 0.00 in0.0 mm 0.00 in0.0 mm
04:55 AM 33.0°F0.6°C 16.9°F-8.4°C 51% Calm Calm -- 30.13 in1020.3 mb 0.00 in0.0 mm 0.00 in0.0 mm 0.00 in0.0 mm
05:00 AM 32.7°F0.4°C 17.0°F-8.3°C 52% Calm Calm 1.0 mph1.6 kmh 30.13 in1020.3 mb 0.00 in0.0 mm 0.00 in0.0 mm 0.00 in0.0 mm
05:05 AM 33.5°F0.8°C 16.9°F-8.4°C 50% 0.2 mph N0.3 kmh N 1.0 mph1.6 kmh 30.13 in1020.3 mb 0.00 in0.0 mm 0.00 in0.0 mm 0.00 in0.0 mm
05:10 AM 33.8°F1.0°C 17.2°F-8.2°C 50% Calm Calm 1.0 mph1.6 kmh 30.13 in1020.3 mb 0.00 in0.0 mm 0.00 in0.0 mm 0.00 in0.0 mm
05:15 AM 34.1°F1.2°C 16.5°F-8.6°C 48% 0.1 mph N0.2 kmh N 1.0 mph1.6 kmh 30.13 in1020.3 mb 0.00 in0.0 mm 0.00 in0.0 mm 0.00 in0.0 mm
05:20 AM 34.4°F1.3°C 16.8°F-8.4°C 48% 0.1 mph N0.2 kmh N 1.0 mph1.6 kmh 30.13 in1020.3 mb 0.00 in0.0 mm 0.00 in0.0 mm 0.00 in0.0 mm
05:25 AM 34.5°F1.4°C 16.9°F-8.4°C 48% Calm Calm 1.0 mph1.6 kmh 30.13 in1020.3 mb 0.00 in0.0 mm 0.00 in0.0 mm 0.00 in0.0 mm
05:30 AM 34.3°F1.3°C 16.7°F-8.5°C 48% 0.1 mph N0.2 kmh N 1.0 mph1.6 kmh 30.14 in1020.7 mb 0.00 in0.0 mm 0.00 in0.0 mm 0.00 in0.0 mm
05:35 AM 34.1°F1.2°C 16.5°F-8.6°C 48% 0.1 mph N0.2 kmh N 1.0 mph1.6 kmh 30.14 in1020.7 mb 0.00 in0.0 mm 0.00 in0.0 mm 0.00 in0.0 mm
05:40 AM 34.1°F1.2°C 16.5°F-8.6°C 48% 0.1 mph N0.2 kmh N 1.0 mph1.6 kmh 30.14 in1020.7 mb 0.00 in0.0 mm 0.00 in0.0 mm 0.00 in0.0 mm
05:45 AM 34.1°F1.2°C 16.5°F-8.6°C 48% 0.1 mph NNE0.2 kmh NNE 1.0 mph1.6 kmh 30.14 in1020.7 mb 0.00 in0.0 mm 0.00 in0.0 mm 0.00 in0.0 mm
05:50 AM 34.2°F1.2°C 16.6°F-8.6°C 48% 0.1 mph NNE0.2 kmh NNE 1.0 mph1.6 kmh 30.14 in1020.7 mb 0.00 in0.0 mm 0.00 in0.0 mm 0.00 in0.0 mm
05:55 AM 34.3°F1.3°C 16.7°F-8.5°C 48% 0.2 mph NNE0.3 kmh NNE 1.0 mph1.6 kmh 30.14 in1020.7 mb 0.00 in0.0 mm 0.00 in0.0 mm 0.00 in0.0 mm
06:00 AM 34.2°F1.2°C 16.6°F-8.6°C 48% 0.1 mph NNE0.2 kmh NNE 1.0 mph1.6 kmh 30.14 in1020.7 mb 0.00 in0.0 mm 0.00 in0.0 mm 0.00 in0.0 mm
06:05 AM 34.0°F1.1°C 16.4°F-8.7°C 48% Calm Calm 1.0 mph1.6 kmh 30.14 in1020.7 mb 0.00 in0.0 mm 0.00 in0.0 mm 0.00 in0.0 mm
06:10 AM 33.9°F1.1°C 16.3°F-8.7°C 48% Calm Calm 1.0 mph1.6 kmh 30.15 in1021.0 mb 0.00 in0.0 mm 0.00 in0.0 mm 0.00 in0.0 mm
06:15 AM 33.8°F1.0°C 16.2°F-8.8°C 48% 0.1 mph N0.2 kmh N 1.0 mph1.6 kmh 30.15 in1021.0 mb 0.00 in0.0 mm 0.00 in0.0 mm 0.00 in0.0 mm
06:20 AM 33.7°F0.9°C 17.1°F-8.3°C 50% 0.1 mph N0.2 kmh N 1.0 mph1.6 kmh 30.14 in1020.7 mb 0.00 in0.0 mm 0.00 in0.0 mm 0.00 in0.0 mm
06:25 AM 33.8°F1.0°C 17.2°F-8.2°C 50% Calm Calm 1.0 mph1.6 kmh 30.14 in1020.7 mb 0.00 in0.0 mm 0.00 in0.0 mm 0.00 in0.0 mm
06:30 AM 33.6°F0.9°C 16.5°F-8.6°C 49% Calm Calm 1.0 mph1.6 kmh 30.14 in1020.7 mb 0.00 in0.0 mm 0.00 in0.0 mm 0.00 in0.0 mm
06:35 AM 33.2°F0.7°C 16.6°F-8.6°C 50% Calm Calm -- 30.14 in1020.7 mb 0.00 in0.0 mm 0.00 in0.0 mm 0.00 in0.0 mm
06:40 AM 33.1°F0.6°C 17.0°F-8.3°C 51% Calm Calm 1.0 mph1.6 kmh 30.14 in1020.7 mb 0.00 in0.0 mm 0.00 in0.0 mm 0.00 in0.0 mm
06:45 AM 33.0°F0.6°C 16.9°F-8.4°C 51% Calm Calm 1.0 mph1.6 kmh 30.14 in1020.7 mb 0.00 in0.0 mm 0.00 in0.0 mm 0.00 in0.0 mm
06:50 AM 32.7°F0.4°C 17.0°F-8.3°C 52% Calm Calm 1.0 mph1.6 kmh 30.14 in1020.7 mb 0.00 in0.0 mm 0.00 in0.0 mm 0.00 in0.0 mm
06:55 AM 32.5°F0.3°C 17.3°F-8.2°C 53% Calm Calm 1.0 mph1.6 kmh 30.14 in1020.7 mb 0.00 in0.0 mm 0.00 in0.0 mm 0.00 in0.0 mm
07:00 AM 32.7°F0.4°C 17.0°F-8.3°C 52% Calm Calm 1.0 mph1.6 kmh 30.15 in1021.0 mb 0.00 in0.0 mm 0.00 in0.0 mm 0.00 in0.0 mm
07:05 AM 32.6°F0.3°C 16.9°F-8.4°C 52% Calm Calm 1.0 mph1.6 kmh 30.15 in1021.0 mb 0.00 in0.0 mm 0.00 in0.0 mm 0.00 in0.0 mm
07:10 AM 32.4°F0.2°C 17.2°F-8.2°C 53% Calm Calm -- 30.15 in1021.0 mb 0.00 in0.0 mm 0.00 in0.0 mm 0.00 in0.0 mm
07:15 AM 32.4°F0.2°C 17.2°F-8.2°C 53% Calm Calm -- 30.15 in1021.0 mb 0.00 in0.0 mm 0.00 in0.0 mm 0.00 in0.0 mm
07:20 AM 32.7°F0.4°C 17.9°F-7.8°C 54% Calm Calm -- 30.15 in1021.0 mb 0.00 in0.0 mm 0.00 in0.0 mm 0.00 in0.0 mm
07:25 AM 32.5°F0.3°C 17.3°F-8.2°C 53% Calm Calm -- 30.15 in1021.0 mb 0.00 in0.0 mm 0.00 in0.0 mm 0.00 in0.0 mm
07:30 AM 32.0°F0.0°C 17.3°F-8.2°C 54% Calm Calm -- 30.15 in1021.0 mb 0.00 in0.0 mm 0.00 in0.0 mm 0.00 in0.0 mm
07:35 AM 31.8°F-0.1°C 17.9°F-7.8°C 56% Calm Calm -- 30.15 in1021.0 mb 0.00 in0.0 mm 0.00 in0.0 mm 0.00 in0.0 mm
07:40 AM 31.8°F-0.1°C 17.9°F-7.8°C 56% Calm Calm -- 30.15 in1021.0 mb 0.00 in0.0 mm 0.00 in0.0 mm 0.00 in0.0 mm
07:45 AM 31.7°F-0.2°C 17.4°F-8.1°C 55% Calm Calm -- 30.15 in1021.0 mb 0.00 in0.0 mm 0.00 in0.0 mm 0.00 in0.0 mm
07:50 AM 31.8°F-0.1°C 17.9°F-7.8°C 56% Calm Calm -- 30.15 in1021.0 mb 0.00 in0.0 mm 0.00 in0.0 mm 0.00 in0.0 mm
07:55 AM 32.6°F0.3°C 18.2°F-7.7°C 55% Calm Calm -- 30.16 in1021.3 mb 0.00 in0.0 mm 0.00 in0.0 mm 0.00 in0.0 mm
08:00 AM 34.1°F1.2°C 18.3°F-7.6°C 52% Calm Calm -- 30.16 in1021.3 mb 0.00 in0.0 mm 0.00 in0.0 mm 0.00 in0.0 mm
08:05 AM 35.6°F2.0°C 18.3°F-7.6°C 49% Calm Calm -- 30.16 in1021.3 mb 0.00 in0.0 mm 0.00 in0.0 mm 0.00 in0.0 mm
08:10 AM 36.9°F2.7°C 18.6°F-7.4°C 47% 0.4 mph NW0.6 kmh NW 2.0 mph3.2 kmh 30.16 in1021.3 mb 0.00 in0.0 mm 0.00 in0.0 mm 0.00 in0.0 mm
08:15 AM 37.9°F3.3°C 18.5°F-7.5°C 45% 0.6 mph NNW1.0 kmh NNW 2.0 mph3.2 kmh 30.16 in1021.3 mb 0.00 in0.0 mm 0.00 in0.0 mm 0.00 in0.0 mm
08:20 AM 38.9°F3.8°C 18.9°F-7.3°C 44% 0.4 mph N0.6 kmh N 2.0 mph3.2 kmh 30.17 in1021.7 mb 0.00 in0.0 mm 0.00 in0.0 mm 0.00 in0.0 mm
08:25 AM 39.6°F4.2°C 19.0°F-7.2°C 43% 0.1 mph NNW0.2 kmh NNW 2.0 mph3.2 kmh 30.17 in1021.7 mb 0.00 in0.0 mm 0.00 in0.0 mm 0.00 in0.0 mm
08:30 AM 40.5°F4.7°C 18.7°F-7.4°C 41% 1.1 mph NNW1.8 kmh NNW 2.0 mph3.2 kmh 30.17 in1021.7 mb 0.00 in0.0 mm 0.00 in0.0 mm 0.00 in0.0 mm
08:35 AM 41.3°F5.2°C 18.2°F-7.7°C 39% 1.0 mph NW1.6 kmh NW 2.0 mph3.2 kmh 30.17 in1021.7 mb 0.00 in0.0 mm 0.00 in0.0 mm 0.00 in0.0 mm
08:40 AM 41.8°F5.4°C 18.7°F-7.4°C 39% 0.6 mph NW1.0 kmh NW 2.0 mph3.2 kmh 30.17 in1021.7 mb 0.00 in0.0 mm 0.00 in0.0 mm 0.00 in0.0 mm
08:45 AM 42.3°F5.7°C 19.1°F-7.2°C 39% 0.8 mph NW1.3 kmh NW 3.0 mph4.8 kmh 30.18 in1022.0 mb 0.00 in0.0 mm 0.00 in0.0 mm 0.00 in0.0 mm
08:50 AM 42.9°F6.1°C 19.1°F-7.2°C 38% 1.3 mph NW2.1 kmh NW 3.0 mph4.8 kmh 30.18 in1022.0 mb 0.00 in0.0 mm 0.00 in0.0 mm 0.00 in0.0 mm
08:55 AM 43.3°F6.3°C 19.4°F-7.0°C 38% 0.9 mph N1.4 kmh N 3.0 mph4.8 kmh 30.18 in1022.0 mb 0.00 in0.0 mm 0.00 in0.0 mm 0.00 in0.0 mm
09:00 AM 43.6°F6.4°C 19.1°F-7.2°C 37% 1.0 mph NNW1.6 kmh NNW 3.0 mph4.8 kmh 30.18 in1022.0 mb 0.00 in0.0 mm 0.00 in0.0 mm 0.00 in0.0 mm
09:05 AM 44.0°F6.7°C 19.4°F-7.0°C 37% 0.7 mph NNW1.1 kmh NNW 3.0 mph4.8 kmh 30.18 in1022.0 mb 0.00 in0.0 mm 0.00 in0.0 mm 0.00 in0.0 mm
09:10 AM 44.3°F6.8°C 19.0°F-7.2°C 36% 0.6 mph NW1.0 kmh NW 2.0 mph3.2 kmh 30.18 in1022.0 mb 0.00 in0.0 mm 0.00 in0.0 mm 0.00 in0.0 mm
09:15 AM 44.8°F7.1°C 19.5°F-6.9°C 36% 0.2 mph NW0.3 kmh NW 2.0 mph3.2 kmh 30.18 in1022.0 mb 0.00 in0.0 mm 0.00 in0.0 mm 0.00 in0.0 mm
09:20 AM 45.1°F7.3°C 19.1°F-7.2°C 35% Calm Calm 2.0 mph3.2 kmh 30.18 in1022.0 mb 0.00 in0.0 mm 0.00 in0.0 mm 0.00 in0.0 mm
09:25 AM 45.4°F7.4°C 19.4°F-7.0°C 35% Calm Calm 1.0 mph1.6 kmh 30.18 in1022.0 mb 0.00 in0.0 mm 0.00 in0.0 mm 0.00 in0.0 mm
09:30 AM 45.9°F7.7°C 21.1°F-6.1°C 37% 0.1 mph NNE0.2 kmh NNE 1.0 mph1.6 kmh 30.18 in1022.0 mb 0.00 in0.0 mm 0.00 in0.0 mm 0.00 in0.0 mm
09:35 AM 46.4°F8.0°C 18.9°F-7.3°C 33% 0.2 mph N0.3 kmh N 1.0 mph1.6 kmh 30.18 in1022.0 mb 0.00 in0.0 mm 0.00 in0.0 mm 0.00 in0.0 mm
09:40 AM 46.8°F8.2°C 18.5°F-7.5°C 32% 0.3 mph N0.5 kmh N 2.0 mph3.2 kmh 30.19 in1022.4 mb 0.00 in0.0 mm 0.00 in0.0 mm 0.00 in0.0 mm
09:45 AM 47.3°F8.5°C 18.2°F-7.7°C 31% 0.2 mph N0.3 kmh N 2.0 mph3.2 kmh 30.18 in1022.0 mb 0.00 in0.0 mm 0.00 in0.0 mm 0.00 in0.0 mm
09:50 AM 48.0°F8.9°C 19.6°F-6.9°C 32% 0.1 mph WSW0.2 kmh WSW 1.0 mph1.6 kmh 30.18 in1022.0 mb 0.00 in0.0 mm 0.00 in0.0 mm 0.00 in0.0 mm
09:55 AM 48.4°F9.1°C 19.9°F-6.7°C 32% 0.1 mph SW0.2 kmh SW 1.0 mph1.6 kmh 30.18 in1022.0 mb 0.00 in0.0 mm 0.00 in0.0 mm 0.00 in0.0 mm
10:00 AM 48.9°F9.4°C 19.6°F-6.9°C 31% 0.1 mph WSW0.2 kmh WSW 1.0 mph1.6 kmh 30.18 in1022.0 mb 0.00 in0.0 mm 0.00 in0.0 mm 0.00 in0.0 mm
10:05 AM 49.4°F9.7°C 21.5°F-5.8°C 33% 0.2 mph S0.3 kmh S 2.0 mph3.2 kmh 30.18 in1022.0 mb 0.00 in0.0 mm 0.00 in0.0 mm 0.00 in0.0 mm
10:10 AM 50.1°F10.1°C 19.1°F-7.2°C 29% Calm Calm 2.0 mph3.2 kmh 30.18 in1022.0 mb 0.00 in0.0 mm 0.00 in0.0 mm 0.00 in0.0 mm
10:15 AM 50.9°F10.5°C 21.4°F-5.9°C 31% 0.2 mph SSW0.3 kmh SSW 1.0 mph1.6 kmh 30.18 in1022.0 mb 0.00 in0.0 mm 0.00 in0.0 mm 0.00 in0.0 mm
10:20 AM 51.3°F10.7°C 18.5°F-7.5°C 27% 0.1 mph WSW0.2 kmh WSW 1.0 mph1.6 kmh 30.18 in1022.0 mb 0.00 in0.0 mm 0.00 in0.0 mm 0.00 in0.0 mm
10:25 AM 52.0°F11.1°C 19.9°F-6.7°C 28% 0.7 mph S1.1 kmh S 2.0 mph3.2 kmh 30.18 in1022.0 mb 0.00 in0.0 mm 0.00 in0.0 mm 0.00 in0.0 mm
10:30 AM 52.8°F11.6°C 21.4°F-5.9°C 29% 0.5 mph SW0.8 kmh SW 2.0 mph3.2 kmh 30.18 in1022.0 mb 0.00 in0.0 mm 0.00 in0.0 mm 0.00 in0.0 mm
10:35 AM 53.5°F11.9°C 20.4°F-6.4°C 27% 0.5 mph S0.8 kmh S 2.0 mph3.2 kmh 30.18 in1022.0 mb 0.00 in0.0 mm 0.00 in0.0 mm 0.00 in0.0 mm
10:40 AM 53.5°F11.9°C 20.4°F-6.4°C 27% 0.2 mph S0.3 kmh S 2.0 mph3.2 kmh 30.18 in1022.0 mb 0.00 in0.0 mm 0.00 in0.0 mm 0.00 in0.0 mm
10:45 AM 54.0°F12.2°C 19.9°F-6.7°C 26% 0.3 mph SSE0.5 kmh SSE 2.0 mph3.2 kmh 30.18 in1022.0 mb 0.00 in0.0 mm 0.00 in0.0 mm 0.00 in0.0 mm
10:50 AM 54.7°F12.6°C 21.4°F-5.9°C 27% 0.3 mph S0.5 kmh S 2.0 mph3.2 kmh 30.18 in1022.0 mb 0.00 in0.0 mm 0.00 in0.0 mm 0.00 in0.0 mm
10:55 AM 55.5°F13.1°C 22.1°F-5.5°C 27% 0.1 mph SSE0.2 kmh SSE 2.0 mph3.2 kmh 30.18 in1022.0 mb 0.00 in0.0 mm 0.00 in0.0 mm 0.00 in0.0 mm
11:00 AM 56.1°F13.4°C 22.6°F-5.2°C 27% 0.5 mph SW0.8 kmh SW 2.0 mph3.2 kmh 30.18 in1022.0 mb 0.00 in0.0 mm 0.00 in0.0 mm 0.00 in0.0 mm
11:05 AM 56.3°F13.5°C 19.0°F-7.2°C 23% 0.5 mph WNW0.8 kmh WNW 2.0 mph3.2 kmh 30.18 in1022.0 mb 0.00 in0.0 mm 0.00 in0.0 mm 0.00 in0.0 mm
11:10 AM 56.3°F13.5°C 20.0°F-6.7°C 24% 0.4 mph SW0.6 kmh SW 2.0 mph3.2 kmh 30.18 in1022.0 mb 0.00 in0.0 mm 0.00 in0.0 mm 0.00 in0.0 mm
11:15 AM 56.5°F13.6°C 19.2°F-7.1°C 23% 0.7 mph S1.1 kmh S 3.0 mph4.8 kmh 30.18 in1022.0 mb 0.00 in0.0 mm 0.00 in0.0 mm 0.00 in0.0 mm
11:20 AM 56.3°F13.5°C 18.0°F-7.8°C 22% 0.3 mph N0.5 kmh N 3.0 mph4.8 kmh 30.18 in1022.0 mb 0.00 in0.0 mm 0.00 in0.0 mm 0.00 in0.0 mm
11:25 AM 56.9°F13.8°C 23.3°F-4.8°C 27% 0.1 mph E0.2 kmh E 1.0 mph1.6 kmh 30.18 in1022.0 mb 0.00 in0.0 mm 0.00 in0.0 mm 0.00 in0.0 mm
11:30 AM 57.6°F14.2°C 21.1°F-6.1°C 24% 0.5 mph SW0.8 kmh SW 3.0 mph4.8 kmh 30.17 in1021.7 mb 0.00 in0.0 mm 0.00 in0.0 mm 0.00 in0.0 mm
11:35 AM 57.9°F14.4°C 20.3°F-6.5°C 23% 0.6 mph S1.0 kmh S 3.0 mph4.8 kmh 30.17 in1021.7 mb 0.00 in0.0 mm 0.00 in0.0 mm 0.00 in0.0 mm
11:40 AM 58.0°F14.4°C 21.4°F-5.9°C 24% 0.8 mph SW1.3 kmh SW 4.0 mph6.4 kmh 30.17 in1021.7 mb 0.00 in0.0 mm 0.00 in0.0 mm 0.00 in0.0 mm
11:45 AM 58.2°F14.6°C 16.2°F-8.8°C 19% 0.2 mph N0.3 kmh N 4.0 mph6.4 kmh 30.17 in1021.7 mb 0.00 in0.0 mm 0.00 in0.0 mm 0.00 in0.0 mm
11:50 AM 58.2°F14.6°C 18.5°F-7.5°C 21% 1.1 mph S1.8 kmh S 3.0 mph4.8 kmh 30.17 in1021.7 mb 0.00 in0.0 mm 0.00 in0.0 mm 0.00 in0.0 mm
11:55 AM 58.4°F14.7°C 20.8°F-6.2°C 23% 1.1 mph SSW1.8 kmh SSW 4.0 mph6.4 kmh 30.16 in1021.3 mb 0.00 in0.0 mm 0.00 in0.0 mm 0.00 in0.0 mm
12:00 PM 58.6°F14.8°C 20.9°F-6.2°C 23% 0.9 mph S1.4 kmh S 4.0 mph6.4 kmh 30.16 in1021.3 mb 0.00 in0.0 mm 0.00 in0.0 mm 0.00 in0.0 mm
12:05 PM 58.8°F14.9°C 21.1°F-6.1°C 23% 1.0 mph SE1.6 kmh SE 6.0 mph9.7 kmh 30.16 in1021.3 mb 0.00 in0.0 mm 0.00 in0.0 mm 0.00 in0.0 mm
12:10 PM 59.0°F15.0°C 19.1°F-7.2°C 21% 1.2 mph SSW1.9 kmh SSW 6.0 mph9.7 kmh 30.16 in1021.3 mb 0.00 in0.0 mm 0.00 in0.0 mm 0.00 in0.0 mm
12:15 PM 59.1°F15.1°C 18.1°F-7.7°C 20% 0.2 mph SSW0.3 kmh SSW 3.0 mph4.8 kmh 30.16 in1021.3 mb 0.00 in0.0 mm 0.00 in0.0 mm 0.00 in0.0 mm
12:20 PM 59.2°F15.1°C 19.3°F-7.1°C 21% 1.5 mph S2.4 kmh S 4.0 mph6.4 kmh 30.16 in1021.3 mb 0.00 in0.0 mm 0.00 in0.0 mm 0.00 in0.0 mm
12:25 PM 59.4°F15.2°C 18.3°F-7.6°C 20% 0.7 mph SSW1.1 kmh SSW 4.0 mph6.4 kmh 30.16 in1021.3 mb 0.00 in0.0 mm 0.00 in0.0 mm 0.00 in0.0 mm
12:30 PM 59.7°F15.4°C 17.4°F-8.1°C 19% 1.0 mph S1.6 kmh S 3.0 mph4.8 kmh 30.15 in1021.0 mb 0.00 in0.0 mm 0.00 in0.0 mm 0.00 in0.0 mm
12:35 PM 59.7°F15.4°C 20.8°F-6.2°C 22% 0.7 mph S1.1 kmh S 3.0 mph4.8 kmh 30.15 in1021.0 mb 0.00 in0.0 mm 0.00 in0.0 mm 0.00 in0.0 mm
12:40 PM 59.7°F15.4°C 19.7°F-6.8°C 21% 1.9 mph S3.1 kmh S 4.0 mph6.4 kmh 30.15 in1021.0 mb 0.00 in0.0 mm 0.00 in0.0 mm 0.00 in0.0 mm
12:45 PM 59.7°F15.4°C 19.7°F-6.8°C 21% 2.1 mph SSW3.4 kmh SSW 6.0 mph9.7 kmh 30.15 in1021.0 mb 0.00 in0.0 mm 0.00 in0.0 mm 0.00 in0.0 mm
12:50 PM 59.3°F15.2°C 19.4°F-7.0°C 21% 1.6 mph S2.6 kmh S 6.0 mph9.7 kmh 30.15 in1021.0 mb 0.00 in0.0 mm 0.00 in0.0 mm 0.00 in0.0 mm
12:55 PM 59.1°F15.1°C 16.9°F-8.4°C 19% 0.8 mph SW1.3 kmh SW 5.0 mph8.0 kmh 30.15 in1021.0 mb 0.00 in0.0 mm 0.00 in0.0 mm 0.00 in0.0 mm
01:00 PM 59.3°F15.2°C 20.5°F-6.4°C 22% 1.5 mph SW2.4 kmh SW 5.0 mph8.0 kmh 30.15 in1021.0 mb 0.00 in0.0 mm 0.00 in0.0 mm 0.00 in0.0 mm
01:05 PM 59.6°F15.3°C 19.6°F-6.9°C 21% 0.9 mph S1.4 kmh S 5.0 mph8.0 kmh 30.15 in1021.0 mb 0.00 in0.0 mm 0.00 in0.0 mm 0.00 in0.0 mm
01:10 PM 59.6°F15.3°C 19.6°F-6.9°C 21% 1.8 mph SSW2.9 kmh SSW 6.0 mph9.7 kmh 30.15 in1021.0 mb 0.00 in0.0 mm 0.00 in0.0 mm 0.00 in0.0 mm
01:15 PM 59.4°F15.2°C 19.5°F-6.9°C 21% 1.7 mph S2.7 kmh S 6.0 mph9.7 kmh 30.14 in1020.7 mb 0.00 in0.0 mm 0.00 in0.0 mm 0.00 in0.0 mm
01:20 PM 59.0°F15.0°C 18.0°F-7.8°C 20% 2.1 mph S3.4 kmh S 5.0 mph8.0 kmh 30.14 in1020.7 mb 0.00 in0.0 mm 0.00 in0.0 mm 0.00 in0.0 mm
01:25 PM 59.3°F15.2°C 20.5°F-6.4°C 22% 2.4 mph SSW3.9 kmh SSW 5.0 mph8.0 kmh 30.14 in1020.7 mb 0.00 in0.0 mm 0.00 in0.0 mm 0.00 in0.0 mm
01:30 PM 59.6°F15.3°C 19.6°F-6.9°C 21% 2.1 mph SSW3.4 kmh SSW 6.0 mph9.7 kmh 30.14 in1020.7 mb 0.00 in0.0 mm 0.00 in0.0 mm 0.00 in0.0 mm
01:35 PM 59.3°F15.2°C 18.2°F-7.7°C 20% 1.5 mph SW2.4 kmh SW 6.0 mph9.7 kmh 30.13 in1020.3 mb 0.00 in0.0 mm 0.00 in0.0 mm 0.00 in0.0 mm
01:40 PM 59.5°F15.3°C 20.6°F-6.3°C 22% 0.9 mph S1.4 kmh S 4.0 mph6.4 kmh 30.13 in1020.3 mb 0.00 in0.0 mm 0.00 in0.0 mm 0.00 in0.0 mm
01:45 PM 59.9°F15.5°C 21.0°F-6.1°C 22% 1.8 mph SW2.9 kmh SW 6.0 mph9.7 kmh 30.13 in1020.3 mb 0.00 in0.0 mm 0.00 in0.0 mm 0.00 in0.0 mm
01:50 PM 59.9°F15.5°C 19.9°F-6.7°C 21% 2.4 mph S3.9 kmh S 7.0 mph11.3 kmh 30.12 in1020.0 mb 0.00 in0.0 mm 0.00 in0.0 mm 0.00 in0.0 mm
01:55 PM 60.0°F15.6°C 18.8°F-7.3°C 20% 1.1 mph SW1.8 kmh SW 7.0 mph11.3 kmh 30.12 in1020.0 mb 0.00 in0.0 mm 0.00 in0.0 mm 0.00 in0.0 mm
02:00 PM 60.3°F15.7°C 19.1°F-7.2°C 20% 1.0 mph SW1.6 kmh SW 3.0 mph4.8 kmh 30.12 in1020.0 mb 0.00 in0.0 mm 0.00 in0.0 mm 0.00 in0.0 mm
02:05 PM 60.4°F15.8°C 20.3°F-6.5°C 21% 2.0 mph SSW3.2 kmh SSW 6.0 mph9.7 kmh 30.12 in1020.0 mb 0.00 in0.0 mm 0.00 in0.0 mm 0.00 in0.0 mm
02:10 PM 60.4°F15.8°C 20.3°F-6.5°C 21% 1.8 mph SSW2.9 kmh SSW 6.0 mph9.7 kmh 30.12 in1020.0 mb 0.00 in0.0 mm 0.00 in0.0 mm 0.00 in0.0 mm
02:15 PM 60.4°F15.8°C 20.3°F-6.5°C 21% 0.7 mph S1.1 kmh S 4.0 mph6.4 kmh 30.11 in1019.6 mb 0.00 in0.0 mm 0.00 in0.0 mm 0.00 in0.0 mm
02:20 PM 60.1°F15.6°C 18.9°F-7.3°C 20% 1.7 mph S2.7 kmh S 5.0 mph8.0 kmh 30.11 in1019.6 mb 0.00 in0.0 mm 0.00 in0.0 mm 0.00 in0.0 mm
02:25 PM 60.0°F15.6°C 18.8°F-7.3°C 20% 2.7 mph SSW4.3 kmh SSW 7.0 mph11.3 kmh 30.11 in1019.6 mb 0.00 in0.0 mm 0.00 in0.0 mm 0.00 in0.0 mm
02:30 PM 59.4°F15.2°C 19.5°F-6.9°C 21% 2.4 mph SSW3.9 kmh SSW 7.0 mph11.3 kmh 30.11 in1019.6 mb 0.00 in0.0 mm 0.00 in0.0 mm 0.00 in0.0 mm
02:35 PM 59.0°F15.0°C 18.0°F-7.8°C 20% 0.5 mph S0.8 kmh S 7.0 mph11.3 kmh 30.11 in1019.6 mb 0.00 in0.0 mm 0.00 in0.0 mm 0.00 in0.0 mm
02:40 PM 58.7°F14.8°C 20.0°F-6.7°C 22% 0.6 mph SW1.0 kmh SW 3.0 mph4.8 kmh 30.11 in1019.6 mb 0.00 in0.0 mm 0.00 in0.0 mm 0.00 in0.0 mm
02:45 PM 58.8°F14.9°C 19.0°F-7.2°C 21% 2.1 mph SSW3.4 kmh SSW 5.0 mph8.0 kmh 30.11 in1019.6 mb 0.00 in0.0 mm 0.00 in0.0 mm 0.00 in0.0 mm
02:50 PM 59.2°F15.1°C 18.2°F-7.7°C 20% 1.8 mph S2.9 kmh S 5.0 mph8.0 kmh 30.11 in1019.6 mb 0.00 in0.0 mm 0.00 in0.0 mm 0.00 in0.0 mm
02:55 PM 59.1°F15.1°C 19.2°F-7.1°C 21% 1.9 mph SSW3.1 kmh SSW 5.0 mph8.0 kmh 30.11 in1019.6 mb 0.00 in0.0 mm 0.00 in0.0 mm 0.00 in0.0 mm
03:00 PM 59.5°F15.3°C 19.5°F-6.9°C 21% 1.0 mph S1.6 kmh S 5.0 mph8.0 kmh 30.11 in1019.6 mb 0.00 in0.0 mm 0.00 in0.0 mm 0.00 in0.0 mm
03:05 PM 60.1°F15.6°C 18.9°F-7.3°C 20% 0.8 mph S1.3 kmh S 4.0 mph6.4 kmh 30.11 in1019.6 mb 0.00 in0.0 mm 0.00 in0.0 mm 0.00 in0.0 mm
03:10 PM 60.4°F15.8°C 19.2°F-7.1°C 20% 1.6 mph S2.6 kmh S 4.0 mph6.4 kmh 30.11 in1019.6 mb 0.00 in0.0 mm 0.00 in0.0 mm 0.00 in0.0 mm
03:15 PM 60.4°F15.8°C 20.3°F-6.5°C 21% 0.7 mph SSW1.1 kmh SSW 4.0 mph6.4 kmh 30.11 in1019.6 mb 0.00 in0.0 mm 0.00 in0.0 mm 0.00 in0.0 mm
03:20 PM 60.7°F15.9°C 18.2°F-7.7°C 19% 1.9 mph SSW3.1 kmh SSW 5.0 mph8.0 kmh 30.11 in1019.6 mb 0.00 in0.0 mm 0.00 in0.0 mm 0.00 in0.0 mm
03:25 PM 60.6°F15.9°C 19.3°F-7.1°C 20% 2.0 mph S3.2 kmh S 5.0 mph8.0 kmh 30.11 in1019.6 mb 0.00 in0.0 mm 0.00 in0.0 mm 0.00 in0.0 mm
03:30 PM 60.4°F15.8°C 19.2°F-7.1°C 20% 1.9 mph S3.1 kmh S 6.0 mph9.7 kmh 30.11 in1019.6 mb 0.00 in0.0 mm 0.00 in0.0 mm 0.00 in0.0 mm
03:35 PM 60.5°F15.8°C 19.2°F-7.1°C 20% 0.7 mph SSW1.1 kmh SSW 6.0 mph9.7 kmh 30.11 in1019.6 mb 0.00 in0.0 mm 0.00 in0.0 mm 0.00 in0.0 mm
03:40 PM 60.3°F15.7°C 17.9°F-7.8°C 19% 0.9 mph S1.4 kmh S 3.0 mph4.8 kmh 30.11 in1019.6 mb 0.00 in0.0 mm 0.00 in0.0 mm 0.00 in0.0 mm
03:45 PM 59.7°F15.4°C 18.6°F-7.4°C 20% 0.7 mph NNW1.1 kmh NNW 4.0 mph6.4 kmh 30.10 in1019.3 mb 0.00 in0.0 mm 0.00 in0.0 mm 0.00 in0.0 mm
03:50 PM 59.3°F15.2°C 18.2°F-7.7°C 20% 0.8 mph SSW1.3 kmh SSW 4.0 mph6.4 kmh 30.10 in1019.3 mb 0.00 in0.0 mm 0.00 in0.0 mm 0.00 in0.0 mm
03:55 PM 59.0°F15.0°C 18.0°F-7.8°C 20% 0.5 mph S0.8 kmh S 4.0 mph6.4 kmh 30.10 in1019.3 mb 0.00 in0.0 mm 0.00 in0.0 mm 0.00 in0.0 mm
04:00 PM 59.0°F15.0°C 18.0°F-7.8°C 20% 0.4 mph SW0.6 kmh SW 3.0 mph4.8 kmh 30.10 in1019.3 mb 0.00 in0.0 mm 0.00 in0.0 mm 0.00 in0.0 mm
04:05 PM 59.0°F15.0°C 16.8°F-8.4°C 19% 1.6 mph S2.6 kmh S 5.0 mph8.0 kmh 30.10 in1019.3 mb 0.00 in0.0 mm 0.00 in0.0 mm 0.00 in0.0 mm
04:10 PM 59.4°F15.2°C 18.3°F-7.6°C 20% 0.9 mph S1.4 kmh S 5.0 mph8.0 kmh 30.10 in1019.3 mb 0.00 in0.0 mm 0.00 in0.0 mm 0.00 in0.0 mm
04:15 PM 59.8°F15.4°C 17.5°F-8.1°C 19% 2.1 mph SSW3.4 kmh SSW 6.0 mph9.7 kmh 30.10 in1019.3 mb 0.00 in0.0 mm 0.00 in0.0 mm 0.00 in0.0 mm
04:20 PM 60.1°F15.6°C 17.7°F-7.9°C 19% 1.4 mph SW2.3 kmh SW 6.0 mph9.7 kmh 30.10 in1019.3 mb 0.00 in0.0 mm 0.00 in0.0 mm 0.00 in0.0 mm
04:25 PM 60.2°F15.7°C 16.6°F-8.6°C 18% 1.0 mph SSW1.6 kmh SSW 4.0 mph6.4 kmh 30.10 in1019.3 mb 0.00 in0.0 mm 0.00 in0.0 mm 0.00 in0.0 mm
04:30 PM 60.4°F15.8°C 15.4°F-9.2°C 17% 1.9 mph S3.1 kmh S 5.0 mph8.0 kmh 30.10 in1019.3 mb 0.00 in0.0 mm 0.00 in0.0 mm 0.00 in0.0 mm
04:35 PM 60.3°F15.7°C 16.6°F-8.6°C 18% 1.4 mph S2.3 kmh S 5.0 mph8.0 kmh 30.10 in1019.3 mb 0.00 in0.0 mm 0.00 in0.0 mm 0.00 in0.0 mm
04:40 PM 60.4°F15.8°C 15.4°F-9.2°C 17% 0.4 mph S0.6 kmh S 3.0 mph4.8 kmh 30.10 in1019.3 mb 0.00 in0.0 mm 0.00 in0.0 mm 0.00 in0.0 mm
04:45 PM 60.5°F15.8°C 15.5°F-9.2°C 17% 0.5 mph S0.8 kmh S 2.0 mph3.2 kmh 30.09 in1019.0 mb 0.00 in0.0 mm 0.00 in0.0 mm 0.00 in0.0 mm
04:50 PM 60.1°F15.6°C 15.2°F-9.3°C 17% 1.4 mph S2.3 kmh S 4.0 mph6.4 kmh 30.09 in1019.0 mb 0.00 in0.0 mm 0.00 in0.0 mm 0.00 in0.0 mm
04:55 PM 59.9°F15.5°C 15.0°F-9.4°C 17% 1.4 mph S2.3 kmh S 4.0 mph6.4 kmh 30.09 in1019.0 mb 0.00 in0.0 mm 0.00 in0.0 mm 0.00 in0.0 mm
05:00 PM 60.0°F15.6°C 15.1°F-9.4°C 17% 1.0 mph S1.6 kmh S 4.0 mph6.4 kmh 30.10 in1019.3 mb 0.00 in0.0 mm 0.00 in0.0 mm 0.00 in0.0 mm
05:05 PM 60.1°F15.6°C 15.2°F-9.3°C 17% 0.6 mph S1.0 kmh S 4.0 mph6.4 kmh 30.10 in1019.3 mb 0.00 in0.0 mm 0.00 in0.0 mm 0.00 in0.0 mm
05:10 PM 59.9°F15.5°C 16.3°F-8.7°C 18% 1.3 mph SSW2.1 kmh SSW 6.0 mph9.7 kmh 30.10 in1019.3 mb 0.00 in0.0 mm 0.00 in0.0 mm 0.00 in0.0 mm
05:15 PM 58.9°F14.9°C 15.5°F-9.2°C 18% 2.0 mph SSW3.2 kmh SSW 6.0 mph9.7 kmh 30.10 in1019.3 mb 0.00 in0.0 mm 0.00 in0.0 mm 0.00 in0.0 mm
05:20 PM 58.1°F14.5°C 14.8°F-9.6°C 18% 1.1 mph WSW1.8 kmh WSW 5.0 mph8.0 kmh 30.10 in1019.3 mb 0.00 in0.0 mm 0.00 in0.0 mm 0.00 in0.0 mm
05:25 PM 57.7°F14.3°C 14.5°F-9.7°C 18% 1.4 mph SSW2.3 kmh SSW 4.0 mph6.4 kmh 30.11 in1019.6 mb 0.00 in0.0 mm 0.00 in0.0 mm 0.00 in0.0 mm
05:30 PM 57.0°F13.9°C 13.9°F-10.1°C 18% 1.4 mph SW2.3 kmh SW 4.0 mph6.4 kmh 30.11 in1019.6 mb 0.00 in0.0 mm 0.00 in0.0 mm 0.00 in0.0 mm
05:35 PM 56.6°F13.7°C 14.8°F-9.6°C 19% 1.1 mph S1.8 kmh S 5.0 mph8.0 kmh 30.11 in1019.6 mb 0.00 in0.0 mm 0.00 in0.0 mm 0.00 in0.0 mm
05:40 PM 56.7°F13.7°C 14.9°F-9.5°C 19% 0.6 mph S1.0 kmh S 5.0 mph8.0 kmh 30.11 in1019.6 mb 0.00 in0.0 mm 0.00 in0.0 mm 0.00 in0.0 mm
05:45 PM 56.8°F13.8°C 15.0°F-9.4°C 19% 0.9 mph SSW1.4 kmh SSW 5.0 mph8.0 kmh 30.11 in1019.6 mb 0.00 in0.0 mm 0.00 in0.0 mm 0.00 in0.0 mm
05:50 PM 56.5°F13.6°C 14.8°F-9.6°C 19% 1.3 mph SW2.1 kmh SW 5.0 mph8.0 kmh 30.11 in1019.6 mb 0.00 in0.0 mm 0.00 in0.0 mm 0.00 in0.0 mm
05:55 PM 56.0°F13.3°C 14.3°F-9.8°C 19% 1.0 mph SSW1.6 kmh SSW 4.0 mph6.4 kmh 30.11 in1019.6 mb 0.00 in0.0 mm 0.00 in0.0 mm 0.00 in0.0 mm
06:00 PM 55.5°F13.1°C 13.9°F-10.1°C 19% 0.9 mph S1.4 kmh S 3.0 mph4.8 kmh 30.11 in1019.6 mb 0.00 in0.0 mm 0.00 in0.0 mm 0.00 in0.0 mm
06:05 PM 55.2°F12.9°C 14.8°F-9.6°C 20% 0.5 mph S0.8 kmh S 2.0 mph3.2 kmh 30.11 in1019.6 mb 0.00 in0.0 mm 0.00 in0.0 mm 0.00 in0.0 mm
06:10 PM 54.8°F12.7°C 13.4°F-10.3°C 19% 1.3 mph SSW2.1 kmh SSW 4.0 mph6.4 kmh 30.11 in1019.6 mb 0.00 in0.0 mm 0.00 in0.0 mm 0.00 in0.0 mm
06:15 PM 54.5°F12.5°C 14.3°F-9.8°C 20% 0.7 mph SW1.1 kmh SW 4.0 mph6.4 kmh 30.11 in1019.6 mb 0.00 in0.0 mm 0.00 in0.0 mm 0.00 in0.0 mm
06:20 PM 54.2°F12.3°C 12.9°F-10.6°C 19% 0.5 mph S0.8 kmh S 3.0 mph4.8 kmh 30.11 in1019.6 mb 0.00 in0.0 mm 0.00 in0.0 mm 0.00 in0.0 mm
06:25 PM 53.9°F12.2°C 13.8°F-10.1°C 20% 0.5 mph SW0.8 kmh SW 3.0 mph4.8 kmh 30.11 in1019.6 mb 0.00 in0.0 mm 0.00 in0.0 mm 0.00 in0.0 mm
06:30 PM 53.6°F12.0°C 15.7°F-9.1°C 22% 0.5 mph SW0.8 kmh SW 3.0 mph4.8 kmh 30.11 in1019.6 mb 0.00 in0.0 mm 0.00 in0.0 mm 0.00 in0.0 mm
06:35 PM 53.2°F11.8°C 16.4°F-8.7°C 23% 0.3 mph SW0.5 kmh SW 3.0 mph4.8 kmh 30.11 in1019.6 mb 0.00 in0.0 mm 0.00 in0.0 mm 0.00 in0.0 mm
06:40 PM 52.8°F11.6°C 15.0°F-9.4°C 22% 0.1 mph SSW0.2 kmh SSW 2.0 mph3.2 kmh 30.11 in1019.6 mb 0.00 in0.0 mm 0.00 in0.0 mm 0.00 in0.0 mm
06:45 PM 52.5°F11.4°C 13.7°F-10.2°C 21% 0.3 mph SW0.5 kmh SW 1.0 mph1.6 kmh 30.11 in1019.6 mb 0.00 in0.0 mm 0.00 in0.0 mm 0.00 in0.0 mm
06:50 PM 52.3°F11.3°C 13.5°F-10.3°C 21% Calm Calm 1.0 mph1.6 kmh 30.11 in1019.6 mb 0.00 in0.0 mm 0.00 in0.0 mm 0.00 in0.0 mm
06:55 PM 51.9°F11.1°C 14.3°F-9.8°C 22% Calm Calm 1.0 mph1.6 kmh 30.11 in1019.6 mb 0.00 in0.0 mm 0.00 in0.0 mm 0.00 in0.0 mm
07:00 PM 51.7°F10.9°C 14.1°F-9.9°C 22% 0.3 mph SW0.5 kmh SW 2.0 mph3.2 kmh 30.11 in1019.6 mb 0.00 in0.0 mm 0.00 in0.0 mm 0.00 in0.0 mm
07:05 PM 51.4°F10.8°C 14.9°F-9.5°C 23% Calm Calm 2.0 mph3.2 kmh 30.12 in1020.0 mb 0.00 in0.0 mm 0.00 in0.0 mm 0.00 in0.0 mm
07:10 PM 51.1°F10.6°C 12.5°F-10.8°C 21% 0.1 mph SW0.2 kmh SW 1.0 mph1.6 kmh 30.12 in1020.0 mb 0.00 in0.0 mm 0.00 in0.0 mm 0.00 in0.0 mm
07:15 PM 51.0°F10.6°C 13.5°F-10.3°C 22% Calm Calm 1.0 mph1.6 kmh 30.12 in1020.0 mb 0.00 in0.0 mm 0.00 in0.0 mm 0.00 in0.0 mm
07:20 PM 50.9°F10.5°C 13.4°F-10.3°C 22% Calm Calm 1.0 mph1.6 kmh 30.12 in1020.0 mb 0.00 in0.0 mm 0.00 in0.0 mm 0.00 in0.0 mm
07:25 PM 50.6°F10.3°C 13.2°F-10.4°C 22% Calm Calm 1.0 mph1.6 kmh 30.12 in1020.0 mb 0.00 in0.0 mm 0.00 in0.0 mm 0.00 in0.0 mm
07:30 PM 50.4°F10.2°C 13.0°F-10.6°C 22% Calm Calm 1.0 mph1.6 kmh 30.12 in1020.0 mb 0.00 in0.0 mm 0.00 in0.0 mm 0.00 in0.0 mm
07:35 PM 50.4°F10.2°C 12.0°F-11.1°C 21% Calm Calm 1.0 mph1.6 kmh 30.12 in1020.0 mb 0.00 in0.0 mm 0.00 in0.0 mm 0.00 in0.0 mm
07:40 PM 50.4°F10.2°C 12.0°F-11.1°C 21% 0.1 mph SW0.2 kmh SW 1.0 mph1.6 kmh 30.12 in1020.0 mb 0.00 in0.0 mm 0.00 in0.0 mm 0.00 in0.0 mm
07:45 PM 50.5°F10.3°C 12.0°F-11.1°C 21% 0.2 mph SW0.3 kmh SW 1.0 mph1.6 kmh 30.12 in1020.0 mb 0.00 in0.0 mm 0.00 in0.0 mm 0.00 in0.0 mm
07:50 PM 50.5°F10.3°C 12.0°F-11.1°C 21% Calm Calm 1.0 mph1.6 kmh 30.12 in1020.0 mb 0.00 in0.0 mm 0.00 in0.0 mm 0.00 in0.0 mm
07:55 PM 50.4°F10.2°C 10.9°F-11.7°C 20% Calm Calm -- 30.12 in1020.0 mb 0.00 in0.0 mm 0.00 in0.0 mm 0.00 in0.0 mm
08:00 PM 50.3°F10.2°C 12.9°F-10.6°C 22% Calm Calm 1.0 mph1.6 kmh 30.12 in1020.0 mb 0.00 in0.0 mm 0.00 in0.0 mm 0.00 in0.0 mm
08:05 PM 50.0°F10.0°C 11.6°F-11.3°C 21% Calm Calm 1.0 mph1.6 kmh 30.12 in1020.0 mb 0.00 in0.0 mm 0.00 in0.0 mm 0.00 in0.0 mm
08:10 PM 49.7°F9.8°C 11.4°F-11.4°C 21% Calm Calm -- 30.12 in1020.0 mb 0.00 in0.0 mm 0.00 in0.0 mm 0.00 in0.0 mm
08:15 PM 49.2°F9.6°C 12.0°F-11.1°C 22% Calm Calm -- 30.12 in1020.0 mb 0.00 in0.0 mm 0.00 in0.0 mm 0.00 in0.0 mm
08:20 PM 48.7°F9.3°C 11.6°F-11.3°C 22% Calm Calm -- 30.12 in1020.0 mb 0.00 in0.0 mm 0.00 in0.0 mm 0.00 in0.0 mm
08:25 PM 48.5°F9.2°C 12.4°F-10.9°C 23% Calm Calm -- 30.12 in1020.0 mb 0.00 in0.0 mm 0.00 in0.0 mm 0.00 in0.0 mm
08:30 PM 48.2°F9.0°C 12.2°F-11.0°C 23% Calm Calm -- 30.12 in1020.0 mb 0.00 in0.0 mm 0.00 in0.0 mm 0.00 in0.0 mm
08:35 PM 47.9°F8.8°C 12.9°F-10.6°C 24% Calm Calm -- 30.12 in1020.0 mb 0.00 in0.0 mm 0.00 in0.0 mm 0.00 in0.0 mm
08:40 PM 47.6°F8.7°C 12.6°F-10.8°C 24% Calm Calm -- 30.13 in1020.3 mb 0.00 in0.0 mm 0.00 in0.0 mm 0.00 in0.0 mm
08:45 PM 47.3°F8.5°C 13.3°F-10.4°C 25% Calm Calm -- 30.13 in1020.3 mb 0.00 in0.0 mm 0.00 in0.0 mm 0.00 in0.0 mm
08:50 PM 47.3°F8.5°C 12.4°F-10.9°C 24% Calm Calm -- 30.13 in1020.3 mb 0.00 in0.0 mm 0.00 in0.0 mm 0.00 in0.0 mm
08:55 PM 47.8°F8.8°C 12.8°F-10.7°C 24% Calm Calm -- 30.13 in1020.3 mb 0.00 in0.0 mm 0.00 in0.0 mm 0.00 in0.0 mm
09:00 PM 48.2°F9.0°C 12.2°F-11.0°C 23% Calm Calm -- 30.13 in1020.3 mb 0.00 in0.0 mm 0.00 in0.0 mm 0.00 in0.0 mm
09:05 PM 48.4°F9.1°C 12.3°F-10.9°C 23% Calm Calm -- 30.13 in1020.3 mb 0.00 in0.0 mm 0.00 in0.0 mm 0.00 in0.0 mm
09:10 PM 48.4°F9.1°C 12.3°F-10.9°C 23% Calm Calm -- 30.13 in1020.3 mb 0.00 in0.0 mm 0.00 in0.0 mm 0.00 in0.0 mm
09:15 PM 48.0°F8.9°C 13.9°F-10.1°C 25% Calm Calm -- 30.13 in1020.3 mb 0.00 in0.0 mm 0.00 in0.0 mm 0.00 in0.0 mm
09:20 PM 47.7°F8.7°C 13.6°F-10.2°C 25% Calm Calm -- 30.13 in1020.3 mb 0.00 in0.0 mm 0.00 in0.0 mm 0.00 in0.0 mm
09:25 PM 47.5°F8.6°C 14.3°F-9.8°C 26% Calm Calm -- 30.13 in1020.3 mb 0.00 in0.0 mm 0.00 in0.0 mm 0.00 in0.0 mm
09:30 PM 47.7°F8.7°C 13.6°F-10.2°C 25% Calm Calm -- 30.13 in1020.3 mb 0.00 in0.0 mm 0.00 in0.0 mm 0.00 in0.0 mm
09:35 PM 47.9°F8.8°C 12.9°F-10.6°C 24% Calm Calm -- 30.14 in1020.7 mb 0.00 in0.0 mm 0.00 in0.0 mm 0.00 in0.0 mm
09:40 PM 47.9°F8.8°C 13.8°F-10.1°C 25% Calm Calm -- 30.14 in1020.7 mb 0.00 in0.0 mm 0.00 in0.0 mm 0.00 in0.0 mm
09:45 PM 47.9°F8.8°C 12.9°F-10.6°C 24% Calm Calm 1.0 mph1.6 kmh 30.14 in1020.7 mb 0.00 in0.0 mm 0.00 in0.0 mm 0.00 in0.0 mm
09:50 PM 47.8°F8.8°C 14.6°F-9.7°C 26% Calm Calm 1.0 mph1.6 kmh 30.14 in1020.7 mb 0.00 in0.0 mm 0.00 in0.0 mm 0.00 in0.0 mm
09:55 PM 47.8°F8.8°C 15.5°F-9.2°C 27% 0.1 mph WSW0.2 kmh WSW 1.0 mph1.6 kmh 30.14 in1020.7 mb 0.00 in0.0 mm 0.00 in0.0 mm 0.00 in0.0 mm
10:00 PM 47.8°F8.8°C 14.6°F-9.7°C 26% Calm Calm 1.0 mph1.6 kmh 30.14 in1020.7 mb 0.00 in0.0 mm 0.00 in0.0 mm 0.00 in0.0 mm
10:05 PM 47.7°F8.7°C 14.5°F-9.7°C 26% Calm Calm -- 30.13 in1020.3 mb 0.00 in0.0 mm 0.00 in0.0 mm 0.00 in0.0 mm
10:10 PM 47.9°F8.8°C 11.9°F-11.2°C 23% 0.1 mph WSW0.2 kmh WSW 1.0 mph1.6 kmh 30.13 in1020.3 mb 0.00 in0.0 mm 0.00 in0.0 mm 0.00 in0.0 mm
10:15 PM 48.2°F9.0°C 12.2°F-11.0°C 23% Calm Calm 1.0 mph1.6 kmh 30.13 in1020.3 mb 0.00 in0.0 mm 0.00 in0.0 mm 0.00 in0.0 mm
10:20 PM 48.3°F9.1°C 12.2°F-11.0°C 23% Calm Calm 1.0 mph1.6 kmh 30.14 in1020.7 mb 0.00 in0.0 mm 0.00 in0.0 mm 0.00 in0.0 mm
10:25 PM 48.3°F9.1°C 12.2°F-11.0°C 23% Calm Calm 1.0 mph1.6 kmh 30.14 in1020.7 mb 0.00 in0.0 mm 0.00 in0.0 mm 0.00 in0.0 mm
10:30 PM 48.3°F9.1°C 11.2°F-11.6°C 22% Calm Calm 1.0 mph1.6 kmh 30.14 in1020.7 mb 0.00 in0.0 mm 0.00 in0.0 mm 0.00 in0.0 mm
10:35 PM 48.4°F9.1°C 11.3°F-11.5°C 22% Calm Calm -- 30.14 in1020.7 mb 0.00 in0.0 mm 0.00 in0.0 mm 0.00 in0.0 mm
10:40 PM 48.3°F9.1°C 10.2°F-12.1°C 21% Calm Calm -- 30.14 in1020.7 mb 0.00 in0.0 mm 0.00 in0.0 mm 0.00 in0.0 mm
10:45 PM 48.1°F8.9°C 11.1°F-11.6°C 22% Calm Calm -- 30.14 in1020.7 mb 0.00 in0.0 mm 0.00 in0.0 mm 0.00 in0.0 mm
10:50 PM 47.7°F8.7°C 11.7°F-11.3°C 23% Calm Calm -- 30.14 in1020.7 mb 0.00 in0.0 mm 0.00 in0.0 mm 0.00 in0.0 mm
10:55 PM 47.2°F8.4°C 11.3°F-11.5°C 23% Calm Calm -- 30.14 in1020.7 mb 0.00 in0.0 mm 0.00 in0.0 mm 0.00 in0.0 mm
11:00 PM 46.8°F8.2°C 11.9°F-11.2°C 24% Calm Calm 1.0 mph1.6 kmh 30.14 in1020.7 mb 0.00 in0.0 mm 0.00 in0.0 mm 0.00 in0.0 mm
11:05 PM 46.4°F8.0°C 11.6°F-11.3°C 24% Calm Calm 1.0 mph1.6 kmh 30.14 in1020.7 mb 0.00 in0.0 mm 0.00 in0.0 mm 0.00 in0.0 mm
11:10 PM 46.7°F8.2°C 11.9°F-11.2°C 24% 0.1 mph SW0.2 kmh SW 2.0 mph3.2 kmh 30.14 in1020.7 mb 0.00 in0.0 mm 0.00 in0.0 mm 0.00 in0.0 mm
11:15 PM 46.5°F8.1°C 10.7°F-11.8°C 23% Calm Calm 2.0 mph3.2 kmh 30.14 in1020.7 mb 0.00 in0.0 mm 0.00 in0.0 mm 0.00 in0.0 mm
11:20 PM 45.9°F7.7°C 11.2°F-11.6°C 24% Calm Calm -- 30.14 in1020.7 mb 0.00 in0.0 mm 0.00 in0.0 mm 0.00 in0.0 mm
11:25 PM 45.1°F7.3°C 11.4°F-11.4°C 25% Calm Calm -- 30.14 in1020.7 mb 0.00 in0.0 mm 0.00 in0.0 mm 0.00 in0.0 mm
11:30 PM 44.4°F6.9°C 11.7°F-11.3°C 26% Calm Calm -- 30.14 in1020.7 mb 0.00 in0.0 mm 0.00 in0.0 mm 0.00 in0.0 mm
11:35 PM 43.6°F6.4°C 12.7°F-10.7°C 28% Calm Calm -- 30.14 in1020.7 mb 0.00 in0.0 mm 0.00 in0.0 mm 0.00 in0.0 mm
11:40 PM 43.8°F6.6°C 12.8°F-10.7°C 28% Calm Calm 1.0 mph1.6 kmh 30.14 in1020.7 mb 0.00 in0.0 mm 0.00 in0.0 mm 0.00 in0.0 mm
11:45 PM 43.6°F6.4°C 13.5°F-10.3°C 29% Calm Calm 1.0 mph1.6 kmh 30.14 in1020.7 mb 0.00 in0.0 mm 0.00 in0.0 mm 0.00 in0.0 mm
11:50 PM 43.0°F6.1°C 13.7°F-10.2°C 30% Calm Calm -- 30.14 in1020.7 mb 0.00 in0.0 mm 0.00 in0.0 mm 0.00 in0.0 mm
11:55 PM 42.7°F5.9°C 14.9°F-9.5°C 32% Calm Calm -- 30.14 in1020.7 mb 0.00 in0.0 mm 0.00 in0.0 mm 0.00 in0.0 mm